Time;durP1;ratioP1;P1;durP2;ratioP2;P2;SDS_P1;SDS_P2;PMS_P1;PMS_P2;Temp;Humidity;BMP_temperature;BMP_pressure;BME280_temperature;BME280_humidity;BME280_pressure;Samples;Min_cycle;Max_cycle;Signal;HPM_P1;HPM_P2
2022/05/17 00:01:01;;;;;;;8.73;4.30;;;;;;;;;;1719964;83;21054;-67
2022/05/17 00:03:29;;;;;;;9.30;4.22;;;;;;;;;;1656895;86;21122;-67
2022/05/17 00:05:55;;;;;;;9.18;4.67;;;;;;;;;;1673443;86;21129;-67
2022/05/17 00:08:23;;;;;;;8.38;4.30;;;;;;;;;;1690772;84;21060;-66
2022/05/17 00:10:49;;;;;;;10.20;4.37;;;;;;;;;;1706806;84;21111;-66
2022/05/17 00:13:16;;;;;;;8.88;4.28;;;;;;;;;;1706893;83;21064;-66
2022/05/17 00:15:43;;;;;;;10.08;3.90;;;;;;;;;;1707156;83;21135;-66
2022/05/17 00:18:13;;;;;;;7.12;3.95;;;;;;;;;;1706875;84;21077;-66
2022/05/17 00:20:38;;;;;;;8.73;4.40;;;;;;;;;;1729793;83;21046;-66
2022/05/17 00:23:04;;;;;;;8.58;4.58;;;;;;;;;;1725791;83;20990;-66
2022/05/17 00:25:30;;;;;;;7.53;4.87;;;;;;;;;;1698996;84;21025;-66
2022/05/17 00:27:56;;;;;;;9.15;5.28;;;;;;;;;;1684654;84;21077;-66
2022/05/17 00:30:23;;;;;;;9.28;4.20;;;;;;;;;;1703542;83;21086;-66
2022/05/17 00:32:49;;;;;;;9.30;4.45;;;;;;;;;;1679263;85;21049;-66
2022/05/17 00:35:15;;;;;;;7.65;4.40;;;;;;;;;;1710771;83;21117;-66
2022/05/17 00:37:43;;;;;;;8.25;4.45;;;;;;;;;;1731354;83;21553;-66
2022/05/17 00:40:10;;;;;;;10.50;4.62;;;;;;;;;;1699171;84;21056;-67
2022/05/17 00:42:36;;;;;;;8.45;4.37;;;;;;;;;;1685397;85;21598;-66
2022/05/17 00:45:03;;;;;;;7.90;4.37;;;;;;;;;;1704698;83;21062;-66
2022/05/17 00:47:30;;;;;;;8.48;4.62;;;;;;;;;;1674509;84;21060;-66
2022/05/17 00:50:03;;;;;;;9.75;4.53;;;;;;;;;;1701355;84;21075;-67
2022/05/17 00:52:31;;;;;;;9.68;4.00;;;;;;;;;;1704148;84;21039;-67
2022/05/17 00:54:59;;;;;;;7.62;4.25;;;;;;;;;;1686789;84;21079;-67
2022/05/17 00:57:26;;;;;;;11.05;4.40;;;;;;;;;;1734165;83;21547;-67
2022/05/17 00:59:53;;;;;;;8.00;4.20;;;;;;;;;;1726476;83;21059;-67
2022/05/17 01:05:08;;;;;;;10.28;4.37;;;;;;;;;;1743943;79;21099;-67
2022/05/17 01:07:42;;;;;;;8.43;4.50;;;;;;;;;;1744014;82;21511;-67
2022/05/17 01:10:09;;;;;;;9.33;4.92;;;;;;;;;;1743812;82;21072;-67
2022/05/17 01:12:35;;;;;;;9.15;4.70;;;;;;;;;;1744119;82;21570;-66
2022/05/17 01:15:02;;;;;;;8.98;4.37;;;;;;;;;;1743557;82;21084;-67
2022/05/17 01:17:29;;;;;;;7.75;4.60;;;;;;;;;;1743538;82;21062;-66
2022/05/17 01:19:55;;;;;;;7.15;4.58;;;;;;;;;;1743745;82;21001;-66
2022/05/17 01:22:22;;;;;;;9.08;4.65;;;;;;;;;;1743975;82;21000;-67
2022/05/17 01:24:48;;;;;;;8.88;4.08;;;;;;;;;;1743868;82;21047;-67
2022/05/17 01:27:15;;;;;;;6.33;3.62;;;;;;;;;;1744547;81;21079;-66
2022/05/17 01:29:43;;;;;;;7.95;4.12;;;;;;;;;;1743897;82;21039;-67
2022/05/17 01:32:09;;;;;;;8.50;4.22;;;;;;;;;;1744137;82;21025;-67
2022/05/17 01:34:35;;;;;;;6.92;3.90;;;;;;;;;;1743747;82;21063;-67
2022/05/17 01:37:02;;;;;;;7.30;4.05;;;;;;;;;;1744063;82;21574;-67
2022/05/17 01:39:29;;;;;;;8.38;4.05;;;;;;;;;;1743798;82;21095;-66
2022/05/17 01:41:54;;;;;;;9.65;4.17;;;;;;;;;;1744136;82;21081;-67
2022/05/17 01:44:21;;;;;;;8.88;4.17;;;;;;;;;;1744001;82;21064;-67
2022/05/17 01:46:47;;;;;;;9.40;3.90;;;;;;;;;;1743651;82;21044;-66
2022/05/17 01:49:13;;;;;;;8.83;4.22;;;;;;;;;;1743616;82;21635;-66
2022/05/17 01:51:39;;;;;;;6.35;3.80;;;;;;;;;;1743654;82;21107;-66
2022/05/17 01:54:05;;;;;;;5.45;3.37;;;;;;;;;;1743692;82;21064;-66
2022/05/17 01:56:33;;;;;;;6.37;3.35;;;;;;;;;;1743807;82;21056;-67
2022/05/17 01:59:01;;;;;;;6.72;2.95;;;;;;;;;;1743530;82;21500;-67
2022/05/17 02:01:27;;;;;;;5.53;2.75;;;;;;;;;;1743822;82;21048;-67
2022/05/17 02:03:53;;;;;;;4.85;2.70;;;;;;;;;;1741967;81;21130;-67
2022/05/17 02:06:19;;;;;;;8.10;2.72;;;;;;;;;;1738335;82;21032;-66
2022/05/17 02:08:46;;;;;;;4.97;2.47;;;;;;;;;;1738166;82;21574;-67
2022/05/17 02:11:12;;;;;;;3.70;2.30;;;;;;;;;;1737943;82;21064;-66
2022/05/17 02:13:39;;;;;;;7.17;2.17;;;;;;;;;;1738077;82;21035;-66
2022/05/17 02:16:10;;;;;;;4.35;2.30;;;;;;;;;;1737958;82;21004;-66
2022/05/17 02:18:36;;;;;;;3.85;2.33;;;;;;;;;;1738395;82;21514;-66
2022/05/17 02:21:03;;;;;;;4.20;2.33;;;;;;;;;;1738391;82;21003;-66
2022/05/17 02:23:29;;;;;;;6.45;2.27;;;;;;;;;;1738350;82;21059;-66
2022/05/17 02:25:55;;;;;;;3.05;2.00;;;;;;;;;;1737835;82;21075;-66
2022/05/17 02:28:22;;;;;;;4.17;2.15;;;;;;;;;;1738381;82;21104;-65
2022/05/17 02:30:49;;;;;;;4.33;2.50;;;;;;;;;;1737818;82;21019;-67
2022/05/17 02:33:16;;;;;;;2.77;1.95;;;;;;;;;;1738170;82;21281;-67
2022/05/17 02:35:42;;;;;;;4.25;2.20;;;;;;;;;;1737766;82;21063;-67
2022/05/17 02:38:10;;;;;;;3.75;1.80;;;;;;;;;;1738050;82;21051;-67
2022/05/17 02:40:38;;;;;;;3.08;1.90;;;;;;;;;;1737936;82;21003;-67
2022/05/17 02:43:04;;;;;;;2.62;2.00;;;;;;;;;;1738411;82;21067;-66
2022/05/17 02:45:30;;;;;;;3.60;2.00;;;;;;;;;;1737924;82;21058;-66
2022/05/17 02:47:56;;;;;;;3.52;2.10;;;;;;;;;;1738173;82;21094;-66
2022/05/17 02:50:22;;;;;;;3.80;1.80;;;;;;;;;;1738227;82;21562;-67
2022/05/17 02:52:50;;;;;;;5.97;1.95;;;;;;;;;;1738198;82;21094;-66
2022/05/17 02:55:16;;;;;;;3.60;2.00;;;;;;;;;;1738065;82;21090;-67
2022/05/17 02:57:45;;;;;;;3.40;1.95;;;;;;;;;;1738147;82;21023;-67
2022/05/17 03:00:12;;;;;;;3.67;1.90;;;;;;;;;;1738323;82;21422;-67
2022/05/17 03:02:38;;;;;;;3.05;1.82;;;;;;;;;;1737106;82;21556;-67
2022/05/17 03:05:05;;;;;;;3.05;2.05;;;;;;;;;;1750530;82;21060;-67
2022/05/17 03:07:31;;;;;;;6.55;2.20;;;;;;;;;;1757874;82;21468;-67
2022/05/17 03:09:59;;;;;;;5.15;1.87;;;;;;;;;;1757466;81;21407;-67
2022/05/17 03:12:25;;;;;;;2.80;2.00;;;;;;;;;;1757125;82;21064;-67
2022/05/17 03:14:52;;;;;;;3.52;1.90;;;;;;;;;;1757906;81;21535;-66
2022/05/17 03:17:18;;;;;;;3.55;2.00;;;;;;;;;;1751309;81;21023;-66
2022/05/17 03:19:44;;;;;;;2.65;1.80;;;;;;;;;;1750375;82;21068;-66
2022/05/17 03:22:12;;;;;;;4.72;1.80;;;;;;;;;;1752926;81;21060;-66
2022/05/17 03:24:38;;;;;;;3.17;2.20;;;;;;;;;;1742095;81;21049;-66
2022/05/17 03:27:06;;;;;;;5.05;2.70;;;;;;;;;;1746325;81;21059;-66
2022/05/17 03:29:32;;;;;;;3.55;2.12;;;;;;;;;;1757468;82;21055;-66
2022/05/17 03:31:59;;;;;;;3.58;1.85;;;;;;;;;;1756668;82;21367;-66
2022/05/17 03:34:25;;;;;;;3.62;2.12;;;;;;;;;;1754436;82;21100;-66
2022/05/17 03:36:52;;;;;;;2.22;1.77;;;;;;;;;;1742451;81;21036;-66
2022/05/17 03:39:18;;;;;;;3.33;1.90;;;;;;;;;;1742421;81;21064;-67
2022/05/17 03:41:45;;;;;;;2.75;2.00;;;;;;;;;;1742245;82;21071;-67
2022/05/17 03:44:11;;;;;;;4.37;1.98;;;;;;;;;;1747364;81;21080;-67
2022/05/17 03:46:38;;;;;;;2.47;1.60;;;;;;;;;;1743016;82;21602;-67
2022/05/17 03:49:04;;;;;;;2.77;1.70;;;;;;;;;;1746120;81;21083;-66
2022/05/17 03:51:31;;;;;;;3.47;1.80;;;;;;;;;;1743133;82;21017;-66
2022/05/17 03:53:57;;;;;;;3.37;1.70;;;;;;;;;;1753718;82;21559;-66
2022/05/17 03:56:23;;;;;;;3.75;1.70;;;;;;;;;;1753289;81;21017;-66
2022/05/17 03:58:50;;;;;;;3.25;1.98;;;;;;;;;;1757559;82;21113;-67
2022/05/17 04:01:16;;;;;;;3.20;1.52;;;;;;;;;;1757797;81;21511;-67
2022/05/17 04:03:43;;;;;;;2.52;1.60;;;;;;;;;;1757832;81;21063;-66
2022/05/17 04:06:10;;;;;;;2.15;1.60;;;;;;;;;;1753997;82;21515;-66
2022/05/17 04:08:36;;;;;;;2.30;1.47;;;;;;;;;;1749990;81;21047;-66
2022/05/17 04:11:04;;;;;;;2.75;1.40;;;;;;;;;;1747620;82;21563;-66
2022/05/17 04:13:32;;;;;;;3.08;1.72;;;;;;;;;;1757490;81;21072;-66
2022/05/17 04:15:59;;;;;;;2.92;1.65;;;;;;;;;;1754395;82;21004;-66
2022/05/17 04:18:25;;;;;;;2.77;1.60;;;;;;;;;;1748142;81;21051;-66
2022/05/17 04:20:53;;;;;;;2.95;1.67;;;;;;;;;;1750360;82;21040;-67
2022/05/17 04:23:19;;;;;;;3.77;1.55;;;;;;;;;;1757236;82;21084;-66
2022/05/17 04:25:46;;;;;;;2.90;1.80;;;;;;;;;;1745971;82;21040;-66
2022/05/17 04:28:13;;;;;;;6.70;2.12;;;;;;;;;;1742434;81;21546;-65
2022/05/17 04:32:59;;;;;;;5.42;1.95;;;;;;;;;;1801518;79;23326;-67
2022/05/17 04:35:26;;;;;;;3.17;1.70;;;;;;;;;;1760301;80;21012;-67
2022/05/17 04:37:54;;;;;;;1.90;1.67;;;;;;;;;;1756970;80;21079;-67
2022/05/17 04:40:20;;;;;;;2.80;1.60;;;;;;;;;;1750842;82;21113;-65
2022/05/17 04:42:47;;;;;;;2.20;1.77;;;;;;;;;;1752827;81;21016;-66
2022/05/17 04:45:14;;;;;;;2.65;1.70;;;;;;;;;;1758236;81;20993;-66
2022/05/17 04:47:41;;;;;;;2.70;1.62;;;;;;;;;;1759212;81;21025;-66
2022/05/17 04:50:08;;;;;;;2.20;1.70;;;;;;;;;;1753503;82;21017;-66
2022/05/17 04:52:34;;;;;;;2.45;1.80;;;;;;;;;;1756485;81;21099;-66
2022/05/17 04:55:00;;;;;;;2.20;1.77;;;;;;;;;;1755968;81;21071;-66
2022/05/17 04:57:26;;;;;;;2.92;1.52;;;;;;;;;;1756148;81;21554;-67
2022/05/17 04:59:53;;;;;;;1.92;1.50;;;;;;;;;;1758612;81;21103;-66
2022/05/17 05:02:18;;;;;;;2.95;1.77;;;;;;;;;;1754052;82;21091;-68
2022/05/17 05:04:44;;;;;;;1.47;1.37;;;;;;;;;;1729499;82;21094;-67
2022/05/17 05:07:10;;;;;;;4.50;2.10;;;;;;;;;;1725850;83;21111;-68
2022/05/17 05:09:37;;;;;;;2.30;1.70;;;;;;;;;;1725805;83;21040;-67
2022/05/17 05:12:04;;;;;;;3.17;1.67;;;;;;;;;;1725770;83;21080;-67
2022/05/17 05:14:31;;;;;;;4.85;1.87;;;;;;;;;;1725788;83;22254;-69
2022/05/17 05:16:57;;;;;;;2.12;1.60;;;;;;;;;;1725561;83;21060;-68
2022/05/17 05:19:23;;;;;;;2.77;1.70;;;;;;;;;;1693753;85;21000;-67
2022/05/17 05:21:49;;;;;;;2.87;1.55;;;;;;;;;;1665606;86;21104;-67
2022/05/17 05:24:17;;;;;;;1.95;1.62;;;;;;;;;;1651621;87;21097;-68
2022/05/17 05:26:43;;;;;;;2.55;1.55;;;;;;;;;;1674328;86;21083;-67
2022/05/17 05:29:09;;;;;;;2.60;1.60;;;;;;;;;;1674644;86;20984;-68
2022/05/17 05:31:35;;;;;;;3.12;1.80;;;;;;;;;;1668770;86;22233;-68
2022/05/17 05:34:01;;;;;;;3.65;1.90;;;;;;;;;;1657463;86;21045;-67
2022/05/17 05:36:28;;;;;;;2.30;1.87;;;;;;;;;;1657218;86;21041;-68
2022/05/17 05:38:54;;;;;;;4.25;1.80;;;;;;;;;;1657374;86;21571;-68
2022/05/17 05:41:20;;;;;;;4.72;2.00;;;;;;;;;;1657493;86;21032;-69
2022/05/17 05:43:46;;;;;;;4.60;1.77;;;;;;;;;;1656988;86;21092;-68
2022/05/17 05:46:12;;;;;;;3.00;1.70;;;;;;;;;;1656999;86;21036;-68
2022/05/17 05:48:39;;;;;;;4.35;2.37;;;;;;;;;;1656938;87;21049;-68
2022/05/17 05:51:06;;;;;;;2.75;1.72;;;;;;;;;;1656934;86;21041;-69
2022/05/17 05:53:32;;;;;;;2.20;1.67;;;;;;;;;;1656852;86;21567;-68
2022/05/17 05:56:01;;;;;;;2.72;1.80;;;;;;;;;;1656913;86;21088;-67
2022/05/17 05:58:26;;;;;;;2.83;1.70;;;;;;;;;;1656910;86;21568;-66
2022/05/17 06:00:53;;;;;;;2.50;1.57;;;;;;;;;;1657022;86;21087;-67
2022/05/17 06:03:19;;;;;;;2.50;1.75;;;;;;;;;;1656951;85;21072;-68
2022/05/17 06:05:46;;;;;;;2.42;1.65;;;;;;;;;;1656960;86;21193;-67
2022/05/17 06:08:13;;;;;;;3.77;1.90;;;;;;;;;;1656922;86;21060;-68
2022/05/17 06:10:41;;;;;;;2.87;1.80;;;;;;;;;;1657127;86;20997;-67
2022/05/17 06:13:08;;;;;;;4.15;1.77;;;;;;;;;;1656742;86;21091;-67
2022/05/17 06:15:35;;;;;;;3.52;1.90;;;;;;;;;;1656801;86;21072;-66
2022/05/17 06:18:01;;;;;;;2.95;1.60;;;;;;;;;;1656874;86;21100;-67
2022/05/17 06:20:27;;;;;;;2.35;1.60;;;;;;;;;;1656654;86;21081;-68
2022/05/17 06:22:53;;;;;;;3.10;1.80;;;;;;;;;;1656976;86;21505;-68
2022/05/17 06:25:19;;;;;;;2.08;1.67;;;;;;;;;;1656918;86;21067;-68
2022/05/17 06:27:47;;;;;;;3.02;1.62;;;;;;;;;;1656803;86;21539;-67
2022/05/17 06:30:13;;;;;;;3.05;1.80;;;;;;;;;;1656666;86;21504;-68
2022/05/17 06:32:40;;;;;;;2.10;1.60;;;;;;;;;;1660576;86;21117;-68
2022/05/17 06:35:07;;;;;;;4.15;1.75;;;;;;;;;;1662525;86;21584;-67
2022/05/17 06:37:33;;;;;;;3.67;1.72;;;;;;;;;;1663048;86;21066;-69
2022/05/17 06:39:59;;;;;;;4.12;1.60;;;;;;;;;;1662712;86;21082;-67
2022/05/17 06:42:27;;;;;;;3.17;1.57;;;;;;;;;;1663088;86;21086;-67
2022/05/17 06:44:52;;;;;;;1.40;1.22;;;;;;;;;;1662674;86;21022;-67
2022/05/17 06:47:19;;;;;;;2.42;1.70;;;;;;;;;;1662753;86;22136;-67
2022/05/17 06:49:45;;;;;;;2.58;1.40;;;;;;;;;;1662598;86;21106;-67
2022/05/17 06:52:13;;;;;;;2.45;1.70;;;;;;;;;;1662600;86;21531;-68
2022/05/17 06:54:43;;;;;;;3.08;1.52;;;;;;;;;;1662455;86;21684;-68
2022/05/17 06:57:11;;;;;;;2.67;1.35;;;;;;;;;;1662711;86;21047;-68
2022/05/17 06:59:39;;;;;;;4.25;1.40;;;;;;;;;;1662544;86;21596;-68
2022/05/17 07:02:05;;;;;;;3.25;1.70;;;;;;;;;;1662884;86;21027;-68
2022/05/17 07:04:32;;;;;;;3.42;1.50;;;;;;;;;;1662627;85;21117;-67
2022/05/17 07:06:59;;;;;;;1.60;1.40;;;;;;;;;;1662817;86;21027;-68
2022/05/17 07:09:26;;;;;;;2.47;1.50;;;;;;;;;;1662889;86;21093;-68
2022/05/17 07:14:39;;;;;;;2.22;1.40;;;;;;;;;;1662913;86;21074;-68
2022/05/17 07:17:05;;;;;;;2.33;1.30;;;;;;;;;;1662940;86;21058;-68
2022/05/17 07:19:33;;;;;;;2.65;1.40;;;;;;;;;;1662828;86;21058;-69
2022/05/17 07:22:00;;;;;;;2.60;1.45;;;;;;;;;;1662790;86;21123;-69
2022/05/17 07:24:26;;;;;;;1.80;1.30;;;;;;;;;;1663009;86;21565;-69
2022/05/17 07:26:53;;;;;;;3.00;1.55;;;;;;;;;;1662877;86;21063;-68
2022/05/17 07:29:19;;;;;;;2.58;1.25;;;;;;;;;;1663008;86;21083;-67
2022/05/17 07:31:46;;;;;;;1.22;1.00;;;;;;;;;;1662656;86;22142;-68
2022/05/17 07:34:12;;;;;;;5.08;1.30;;;;;;;;;;1662688;86;21023;-71
2022/05/17 07:36:39;;;;;;;1.50;1.05;;;;;;;;;;1662546;86;21090;-71
2022/05/17 07:39:04;;;;;;;1.17;1.05;;;;;;;;;;1662857;86;21098;-70
2022/05/17 07:41:32;;;;;;;1.40;0.78;;;;;;;;;;1662593;86;21061;-70
2022/05/17 07:43:59;;;;;;;2.55;0.95;;;;;;;;;;1662796;86;21498;-68
2022/05/17 07:46:25;;;;;;;1.15;1.00;;;;;;;;;;1662739;86;21037;-70
2022/05/17 07:48:51;;;;;;;7.22;1.20;;;;;;;;;;1662784;86;21047;-69
2022/05/17 07:51:18;;;;;;;1.60;0.95;;;;;;;;;;1662640;86;21644;-72
2022/05/17 07:53:44;;;;;;;2.75;0.85;;;;;;;;;;1662732;86;21074;-71
2022/05/17 07:56:12;;;;;;;2.85;1.25;;;;;;;;;;1662673;86;21117;-72
2022/05/17 07:58:38;;;;;;;1.50;1.22;;;;;;;;;;1662793;86;21106;-72
2022/05/17 08:01:04;;;;;;;1.47;1.20;;;;;;;;;;1662590;86;21094;-69
2022/05/17 08:03:31;;;;;;;1.82;1.20;;;;;;;;;;1662749;85;21126;-70
2022/05/17 08:05:57;;;;;;;1.60;1.05;;;;;;;;;;1662774;86;21109;-70
2022/05/17 08:08:23;;;;;;;4.47;1.37;;;;;;;;;;1662940;86;21070;-68
2022/05/17 08:10:49;;;;;;;2.80;1.12;;;;;;;;;;1662691;86;21546;-69
2022/05/17 08:13:16;;;;;;;2.02;1.20;;;;;;;;;;1662722;86;21019;-68
2022/05/17 08:15:43;;;;;;;1.20;1.10;;;;;;;;;;1662792;86;21046;-71
2022/05/17 08:18:10;;;;;;;3.85;1.20;;;;;;;;;;1662836;86;21049;-69
2022/05/17 08:20:37;;;;;;;1.40;1.05;;;;;;;;;;1662576;86;21054;-69
2022/05/17 08:23:04;;;;;;;1.87;1.00;;;;;;;;;;1662696;86;21011;-72
2022/05/17 08:28:15;;;;;;;1.60;1.10;;;;;;;;;;1662901;86;21034;-68
2022/05/17 08:30:41;;;;;;;1.77;1.00;;;;;;;;;;1662689;86;21762;-67
2022/05/17 08:33:17;;;;;;;1.12;1.02;;;;;;;;;;1662646;86;21058;-69
2022/05/17 08:35:46;;;;;;;1.87;1.02;;;;;;;;;;1662584;86;21122;-70
2022/05/17 08:38:14;;;;;;;2.35;1.10;;;;;;;;;;1662878;86;21515;-68
2022/05/17 08:40:42;;;;;;;2.10;1.20;;;;;;;;;;1662647;86;21054;-67
2022/05/17 08:43:23;;;;;;;1.27;0.95;;;;;;;;;;1646719;86;21117;-67
2022/05/17 08:45:50;;;;;;;2.85;1.17;;;;;;;;;;1662846;86;21057;-68
2022/05/17 08:48:17;;;;;;;1.90;1.20;;;;;;;;;;1661138;86;21573;-68
2022/05/17 08:50:43;;;;;;;3.77;1.12;;;;;;;;;;1662798;86;21058;-68
2022/05/17 08:53:10;;;;;;;2.25;1.05;;;;;;;;;;1662953;86;21039;-67
2022/05/17 08:55:38;;;;;;;2.22;1.12;;;;;;;;;;1662793;86;21576;-68
2022/05/17 08:58:07;;;;;;;5.08;1.40;;;;;;;;;;1662994;86;20983;-67
2022/05/17 09:00:41;;;;;;;1.30;0.90;;;;;;;;;;1662878;86;21074;-67
2022/05/17 09:03:10;;;;;;;1.60;1.42;;;;;;;;;;1662554;85;21672;-68
2022/05/17 09:05:54;;;;;;;3.62;1.20;;;;;;;;;;1659304;86;21569;-68
2022/05/17 09:08:41;;;;;;;1.70;1.05;;;;;;;;;;1662857;86;21109;-68
2022/05/17 09:11:15;;;;;;;2.52;1.20;;;;;;;;;;1662692;86;21473;-68
2022/05/17 09:13:53;;;;;;;1.80;1.10;;;;;;;;;;1635713;86;21094;-68
2022/05/17 09:16:21;;;;;;;3.45;1.32;;;;;;;;;;1662719;86;21081;-68
2022/05/17 09:18:48;;;;;;;2.90;1.22;;;;;;;;;;1662780;86;21487;-67
2022/05/17 09:21:29;;;;;;;2.87;1.42;;;;;;;;;;1662875;86;21027;-71
2022/05/17 09:23:57;;;;;;;2.67;0.90;;;;;;;;;;1662834;86;21098;-68
2022/05/17 09:26:23;;;;;;;1.95;1.17;;;;;;;;;;1686593;85;21109;-70
2022/05/17 09:28:57;;;;;;;6.03;1.50;;;;;;;;;;1723242;83;21036;-68
2022/05/17 09:31:24;;;;;;;2.12;1.10;;;;;;;;;;1723364;83;21028;-70
2022/05/17 09:33:53;;;;;;;2.25;1.60;;;;;;;;;;1724821;83;21041;-69
2022/05/17 09:36:20;;;;;;;1.75;1.30;;;;;;;;;;1725570;83;21095;-69
2022/05/17 09:38:48;;;;;;;3.80;1.70;;;;;;;;;;1725525;83;21036;-69
2022/05/17 09:41:16;;;;;;;5.42;2.10;;;;;;;;;;1725659;83;21115;-68
2022/05/17 09:43:46;;;;;;;11.18;2.92;;;;;;;;;;1725722;83;21586;-70
2022/05/17 09:46:13;;;;;;;7.47;3.00;;;;;;;;;;1725540;83;21607;-69
2022/05/17 09:54:09;;;;;;;4.95;1.50;;;;;;;;;;1725821;83;21512;-67
2022/05/17 09:56:36;;;;;;;3.72;1.52;;;;;;;;;;1725683;83;21076;-67
2022/05/17 09:59:02;;;;;;;3.27;1.60;;;;;;;;;;1691064;85;21563;-67
2022/05/17 10:01:30;;;;;;;2.12;1.50;;;;;;;;;;1638312;86;21052;-67
2022/05/17 10:04:00;;;;;;;3.20;1.72;;;;;;;;;;1662081;86;21230;-69
2022/05/17 10:06:27;;;;;;;3.12;1.72;;;;;;;;;;1661812;86;21151;-68
2022/05/17 10:09:10;;;;;;;4.22;1.80;;;;;;;;;;1663367;86;21888;-67
2022/05/17 10:11:52;;;;;;;1.80;1.35;;;;;;;;;;1663382;86;21036;-67
2022/05/17 10:14:23;;;;;;;3.40;1.40;;;;;;;;;;1637044;86;21109;-68
2022/05/17 10:16:51;;;;;;;;;;;;;;;;;;1693593;85;22090;-69
2022/05/17 10:19:22;;;;;;;2.42;1.50;;;;;;;;;;1691201;85;20191;-69
2022/05/17 10:21:53;;;;;;;4.40;1.90;;;;;;;;;;1691233;85;21100;-68
2022/05/17 10:24:42;;;;;;;2.83;1.52;;;;;;;;;;1691461;85;21599;-68
2022/05/17 10:27:10;;;;;;;2.22;1.45;;;;;;;;;;1691847;85;21035;-68
2022/05/17 10:29:37;;;;;;;1.52;1.40;;;;;;;;;;1691978;85;21032;-68
2022/05/17 10:32:11;;;;;;;2.22;1.60;;;;;;;;;;1690926;85;21041;-68
2022/05/17 10:34:46;;;;;;;2.40;1.42;;;;;;;;;;1684009;85;21040;-68
2022/05/17 10:37:13;;;;;;;3.65;1.60;;;;;;;;;;1717712;83;21603;-68
2022/05/17 10:39:42;;;;;;;2.30;1.65;;;;;;;;;;1717835;83;21009;-68
2022/05/17 10:42:08;;;;;;;5.25;2.15;;;;;;;;;;1717565;83;21044;-68
2022/05/17 10:44:41;;;;;;;4.20;1.60;;;;;;;;;;1717564;83;21096;-68
2022/05/17 10:47:09;;;;;;;2.20;1.45;;;;;;;;;;1717909;83;21511;-68
2022/05/17 10:49:40;;;;;;;4.50;1.62;;;;;;;;;;1717884;83;21105;-68
2022/05/17 10:52:09;;;;;;;2.43;1.57;;;;;;;;;;1715521;83;21571;-69
2022/05/17 10:54:44;;;;;;;2.60;1.40;;;;;;;;;;1717587;83;21099;-69
2022/05/17 10:57:17;;;;;;;4.35;1.62;;;;;;;;;;1717704;83;21024;-68
2022/05/17 11:00:00;;;;;;;3.75;1.65;;;;;;;;;;1717766;83;21033;-68
2022/05/17 11:02:45;;;;;;;1.80;1.40;;;;;;;;;;1717956;83;21111;-68
2022/05/17 11:05:28;;;;;;;2.33;1.60;;;;;;;;;;1717731;83;21500;-67
2022/05/17 11:08:12;;;;;;;2.98;1.37;;;;;;;;;;1717830;83;21119;-66
2022/05/17 11:10:43;;;;;;;1.72;1.20;;;;;;;;;;1717840;83;21079;-67
2022/05/17 11:13:24;;;;;;;5.72;1.52;;;;;;;;;;1717857;83;21037;-67
2022/05/17 11:15:55;;;;;;;2.12;1.50;;;;;;;;;;1716430;83;21074;-67
2022/05/17 11:18:40;;;;;;;3.22;1.42;;;;;;;;;;1717880;83;21080;-67
2022/05/17 11:21:07;;;;;;;13.13;2.10;;;;;;;;;;1717590;83;21052;-70
2022/05/17 11:23:36;;;;;;;3.20;1.50;;;;;;;;;;1716885;83;21072;-69
2022/05/17 11:26:07;;;;;;;2.80;1.62;;;;;;;;;;1717588;83;21044;-70
2022/05/17 11:28:36;;;;;;;2.45;1.60;;;;;;;;;;1717798;83;21052;-69
2022/05/17 11:31:16;;;;;;;5.22;1.60;;;;;;;;;;1717719;83;21057;-69
2022/05/17 11:33:43;;;;;;;6.62;2.37;;;;;;;;;;1716037;83;21500;-67
2022/05/17 11:36:13;;;;;;;5.55;1.70;;;;;;;;;;1723748;83;21036;-69
2022/05/17 11:38:41;;;;;;;4.45;1.50;;;;;;;;;;1725562;83;21103;-69
2022/05/17 11:41:09;;;;;;;4.75;1.50;;;;;;;;;;1725639;83;21064;-69
2022/05/17 11:43:40;;;;;;;3.55;1.60;;;;;;;;;;1725839;83;21004;-69
2022/05/17 11:46:08;;;;;;;3.08;1.90;;;;;;;;;;1725778;83;21048;-68
2022/05/17 11:48:44;;;;;;;7.30;1.90;;;;;;;;;;1721964;83;21028;-67
2022/05/17 11:51:10;;;;;;;2.95;1.27;;;;;;;;;;1725710;83;21052;-68
2022/05/17 11:53:43;;;;;;;5.95;1.82;;;;;;;;;;1725913;83;21075;-68
2022/05/17 11:56:14;;;;;;;3.55;1.60;;;;;;;;;;1725688;83;21083;-68
2022/05/17 11:58:42;;;;;;;4.92;1.50;;;;;;;;;;1725738;83;21092;-68
2022/05/17 12:01:31;;;;;;;3.85;1.47;;;;;;;;;;1725597;83;21520;-70
2022/05/17 12:04:00;;;;;;;3.67;1.70;;;;;;;;;;1690894;83;21069;-67
2022/05/17 12:06:38;;;;;;;7.22;1.60;;;;;;;;;;1691050;85;21096;-70
2022/05/17 12:09:06;;;;;;;4.75;1.50;;;;;;;;;;1663240;86;21049;-67
2022/05/17 12:11:47;;;;;;;3.52;1.77;;;;;;;;;;1690842;85;21124;-68
2022/05/17 12:14:29;;;;;;;3.27;1.60;;;;;;;;;;1691119;85;21029;-68
2022/05/17 12:16:56;;;;;;;4.50;1.52;;;;;;;;;;1663356;86;21100;-68
2022/05/17 12:19:41;;;;;;;3.22;1.60;;;;;;;;;;1658333;86;21559;-67
2022/05/17 12:22:12;;;;;;;3.10;1.50;;;;;;;;;;1691036;85;21087;-68
2022/05/17 12:24:42;;;;;;;4.33;1.60;;;;;;;;;;1660792;86;21068;-68
2022/05/17 12:27:25;;;;;;;5.95;1.62;;;;;;;;;;1657971;86;21068;-67
2022/05/17 12:32:54;;;;;;;6.50;1.90;;;;;;;;;;1663451;86;21037;-69
2022/05/17 12:35:26;;;;;;;8.28;1.70;;;;;;;;;;1655723;86;21099;-69
2022/05/17 12:37:54;;;;;;;3.58;1.55;;;;;;;;;;1685684;85;21057;-69
2022/05/17 12:43:07;;;;;;;5.15;2.25;;;;;;;;;;1673844;86;21123;-69
2022/05/17 12:45:36;;;;;;;5.10;1.72;;;;;;;;;;1667563;86;21574;-69
2022/05/17 12:48:05;;;;;;;3.25;1.27;;;;;;;;;;1673756;85;21027;-70
2022/05/17 12:50:42;;;;;;;5.28;1.80;;;;;;;;;;1672986;86;21040;-69
2022/05/17 12:53:12;;;;;;;4.62;1.60;;;;;;;;;;1673901;86;21111;-69
2022/05/17 12:55:39;;;;;;;10.08;1.70;;;;;;;;;;1673979;85;21067;-70
2022/05/17 12:58:10;;;;;;;9.68;2.05;;;;;;;;;;1674150;86;21511;-68
2022/05/17 13:00:36;;;;;;;6.25;2.10;;;;;;;;;;1674365;85;22119;-68
2022/05/17 13:03:16;;;;;;;4.75;1.90;;;;;;;;;;1674133;84;21079;-69
2022/05/17 13:05:51;;;;;;;6.53;1.92;;;;;;;;;;1672562;86;21123;-68
2022/05/17 13:08:25;;;;;;;4.15;1.62;;;;;;;;;;1674249;86;21512;-68
2022/05/17 13:11:05;;;;;;;7.58;1.87;;;;;;;;;;1674217;86;21054;-68
2022/05/17 13:13:31;;;;;;;3.90;1.72;;;;;;;;;;1674081;85;21510;-68
2022/05/17 13:15:59;;;;;;;5.00;1.77;;;;;;;;;;1674032;86;21024;-68
2022/05/17 13:18:39;;;;;;;8.30;1.95;;;;;;;;;;1673260;86;21040;-68
2022/05/17 13:21:08;;;;;;;8.18;1.90;;;;;;;;;;1673719;85;21017;-68
2022/05/17 13:23:34;;;;;;;6.22;1.92;;;;;;;;;;1671896;86;21086;-68
2022/05/17 13:26:01;;;;;;;5.20;1.90;;;;;;;;;;1673913;86;21095;-70
2022/05/17 13:28:29;;;;;;;3.27;1.75;;;;;;;;;;1674137;86;21020;-68
2022/05/17 13:31:08;;;;;;;6.67;2.25;;;;;;;;;;1674019;85;21083;-68
2022/05/17 13:33:37;;;;;;;4.60;1.82;;;;;;;;;;1673881;86;21095;-68
2022/05/17 13:36:04;;;;;;;7.60;2.10;;;;;;;;;;1672249;85;21578;-69
2022/05/17 13:38:31;;;;;;;6.08;2.00;;;;;;;;;;1671111;86;21091;-69
2022/05/17 13:40:57;;;;;;;5.28;1.72;;;;;;;;;;1671451;86;21036;-69
2022/05/17 13:43:34;;;;;;;5.12;1.70;;;;;;;;;;1671233;85;21024;-68
2022/05/17 13:46:08;;;;;;;4.22;1.77;;;;;;;;;;1671314;86;21043;-69
2022/05/17 13:48:35;;;;;;;3.85;2.05;;;;;;;;;;1671381;85;21064;-68
2022/05/17 13:51:01;;;;;;;8.05;1.90;;;;;;;;;;1671271;86;21505;-67
2022/05/17 13:53:28;;;;;;;6.83;2.00;;;;;;;;;;1671158;85;21040;-68
2022/05/17 13:55:55;;;;;;;8.73;1.85;;;;;;;;;;1671313;85;21134;-68
2022/05/17 13:58:21;;;;;;;4.20;1.90;;;;;;;;;;1671256;85;21028;-69
2022/05/17 14:00:59;;;;;;;7.75;1.92;;;;;;;;;;1671543;85;21028;-67
2022/05/17 14:03:25;;;;;;;3.55;2.00;;;;;;;;;;1671069;84;21082;-69
2022/05/17 14:05:54;;;;;;;4.72;2.05;;;;;;;;;;1671466;86;21043;-69
2022/05/17 14:14:08;;;;;;;5.17;1.90;;;;;;;;;;1671501;86;21028;-68
2022/05/17 14:16:36;;;;;;;2.85;1.95;;;;;;;;;;1671314;86;21579;-68
2022/05/17 14:19:04;;;;;;;4.42;2.05;;;;;;;;;;1671386;86;21051;-69
2022/05/17 14:21:30;;;;;;;3.77;2.20;;;;;;;;;;1671206;86;21067;-68
2022/05/17 14:23:56;;;;;;;12.53;2.60;;;;;;;;;;1671248;85;21146;-68
2022/05/17 14:26:22;;;;;;;6.10;2.30;;;;;;;;;;1671168;86;21095;-68
2022/05/17 14:28:49;;;;;;;4.83;2.20;;;;;;;;;;1671147;86;21043;-68
2022/05/17 14:31:16;;;;;;;9.00;2.50;;;;;;;;;;1671110;86;21075;-69
2022/05/17 14:33:43;;;;;;;4.15;2.52;;;;;;;;;;1671027;86;21055;-69
2022/05/17 14:36:20;;;;;;;5.40;2.20;;;;;;;;;;1671069;85;21048;-68
2022/05/17 14:38:46;;;;;;;7.08;2.62;;;;;;;;;;1671277;85;21031;-68
2022/05/17 14:41:14;;;;;;;6.83;2.50;;;;;;;;;;1671255;86;21024;-69
2022/05/17 14:43:41;;;;;;;8.20;2.10;;;;;;;;;;1671377;85;21095;-69
2022/05/17 14:46:08;;;;;;;3.42;1.82;;;;;;;;;;1671354;86;21032;-69
2022/05/17 14:48:35;;;;;;;4.50;2.17;;;;;;;;;;1671176;85;21092;-69
2022/05/17 14:51:03;;;;;;;6.65;4.20;;;;;;;;;;1671277;86;21785;-69
2022/05/17 14:53:30;;;;;;;8.90;4.92;;;;;;;;;;1670983;85;21603;-68
2022/05/17 14:55:56;;;;;;;13.05;6.35;;;;;;;;;;1671412;86;21100;-69
2022/05/17 14:58:22;;;;;;;15.58;7.30;;;;;;;;;;1671253;86;21143;-69
2022/05/17 15:00:49;;;;;;;13.15;7.03;;;;;;;;;;1671164;86;21530;-67
2022/05/17 15:03:17;;;;;;;9.88;3.58;;;;;;;;;;1671193;84;21091;-68
2022/05/17 15:05:43;;;;;;;7.85;2.98;;;;;;;;;;1671290;85;21008;-69
2022/05/17 15:08:09;;;;;;;8.50;3.58;;;;;;;;;;1671377;86;21546;-69
2022/05/17 15:10:38;;;;;;;6.08;2.90;;;;;;;;;;1671130;85;21135;-68
2022/05/17 15:13:04;;;;;;;4.30;2.47;;;;;;;;;;1671260;86;21520;-68
2022/05/17 15:15:30;;;;;;;8.23;4.35;;;;;;;;;;1671274;86;22112;-68
2022/05/17 15:18:04;;;;;;;14.93;7.78;;;;;;;;;;1671186;86;21039;-67